Latest Weather Observations for Coonabarabran Airport

IDN60801

Issued at 11:04 pm EST Friday 6 May 2016 (issued every 30 minutes, with the page automatically refreshed every 10 minutes)

About weather observations | Map of weather stations | Latest weather observations for NSW | Other Formats
Station Details ID: 064017 Name: COONABARABRAN AIRPORT AWS Lat: -31.33 Lon: 149.27 Height: 645.0 m
Data from the previous 72 hours. | See also: Recent months at Coonabarabran Airport
Date/Time
EST
Temp
°C
App
Temp
°C
Dew
Point
Rel
Hum
%
Delta-T
°C
Wind Press
QNH
hPa
Press
MSL
hPa
Rain
since 9 am
mm
Dir
 
Spd
km/h
Gust
km/h
Spd
kts
Gust
kts
06/11:00pm 16.2 14.6 8.7 61 4.0 SW 7 15 4 8 1020.8 1019.8 0.0
06/10:30pm 14.9 12.8 8.4 65 3.4 W 9 11 5 6 1021.2 1020.2 0.0
06/10:00pm 16.4 15.2 8.1 58 4.3 SSE 4 11 2 6 1020.9 1019.9 0.0
06/09:30pm 16.7 14.4 7.6 55 4.7 NE 9 15 5 8 1020.8 1019.8 0.0
06/09:00pm 15.5 13.0 8.0 61 3.9 ENE 11 13 6 7 1020.4 1019.5 0.0
06/08:30pm 16.7 16.4 8.7 59 4.2 CALM 0 7 0 4 1020.4 1019.5 0.0
06/08:00pm 17.1 16.4 8.5 57 4.5 SSE 2 6 1 3 1020.5 1019.6 0.0
06/07:30pm 18.2 16.2 8.7 54 5.1 SSE 9 15 5 8 1020.2 1019.3 0.0
06/07:00pm 17.9 15.9 8.5 54 5.0 SSE 9 11 5 6 1020.1 1019.2 0.0
06/06:30pm 18.5 16.8 8.5 52 5.3 SSE 7 13 4 7 1019.9 1018.9 0.0
06/06:00pm 18.0 15.7 7.4 50 5.5 E 9 11 5 6 1019.5 1018.5 0.0
06/05:30pm 18.9 17.0 7.7 48 5.9 E 7 9 4 5 1019.2 1018.2 0.0
06/05:00pm 20.1 17.9 7.8 45 6.5 ESE 9 11 5 6 1019.0 1018.1 0.0
06/04:30pm 21.3 18.9 7.2 40 7.5 SE 9 11 5 6 1018.9 1018.0 0.0
06/04:00pm 22.1 20.0 6.7 37 8.1 E 7 13 4 7 1019.0 1018.1 0.0
06/03:30pm 22.7 20.9 7.3 37 8.2 S 6 11 3 6 1019.0 1018.1 0.0
06/03:00pm 22.5 20.6 7.5 38 8.0 SE 7 13 4 7 1018.9 1018.0 0.0
06/02:30pm 22.3 19.8 6.5 36 8.3 N 9 15 5 8 1019.0 1018.1 0.0
06/02:00pm 22.9 21.5 7.4 37 8.3 NNW 4 15 2 8 1019.2 1018.2 0.0
06/01:30pm 22.4 20.8 8.9 42 7.4 ESE 7 17 4 9 1019.4 1018.4 0.0
06/01:00pm 22.4 20.8 7.8 39 7.9 SW 6 13 3 7 1019.7 1018.7 0.0
06/12:30pm 21.8 19.7 8.3 42 7.3 S 9 13 5 7 1020.1 1019.2 0.0
06/12:00pm 21.5 19.6 7.7 41 7.4 ESE 7 15 4 8 1020.5 1019.6 0.0
06/11:30am 21.1 19.3 7.3 41 7.3 ESE 6 13 3 7 1021.1 1020.1 0.0
06/11:00am 20.7 19.2 8.4 45 6.6 SSE 6 13 3 7 1021.6 1020.7 0.0
06/10:30am 19.9 18.2 8.3 47 6.2 SSW 7 13 4 7 1021.8 1020.9 0.0
06/10:00am 19.4 17.9 9.0 51 5.6 SE 7 13 4 7 1021.8 1020.9 0.0
06/09:30am 18.7 17.5 10.3 58 4.6 ESE 7 15 4 8 1021.8 1020.9 0.0
06/09:00am 18.4 17.4 11.0 62 4.1 NE 7 13 4 7 1021.8 1020.9 0.0
06/08:30am 17.5 16.7 10.9 65 3.7 E 6 11 3 6 1021.6 1020.7 0.0
06/08:00am 16.0 14.9 10.7 71 2.9 NE 7 15 4 8 1021.4 1020.5 0.0
06/07:30am 14.7 14.9 10.5 76 2.3 CALM 0 0 0 0 1021.2 1020.2 0.0
06/07:00am 13.8 12.5 9.3 74 2.4 E 6 13 3 7 1020.6 1019.7 0.0
06/06:30am 13.4 11.9 9.1 75 2.3 ENE 7 15 4 8 1020.3 1019.4 0.0
06/06:00am 13.7 13.6 9.4 75 2.3 CALM 0 0 0 0 1020.0 1019.1 0.0
06/05:30am 12.9 12.7 9.2 78 1.9 CALM 0 0 0 0 1020.0 1019.1 0.0
06/05:00am 13.4 13.3 9.5 77 2.1 CALM 0 0 0 0 1019.6 1018.6 0.0
06/04:30am 13.4 12.1 9.1 75 2.3 E 6 13 3 7 1019.5 1018.5 0.0
06/04:00am 14.4 13.0 9.6 73 2.6 E 7 17 4 9 1019.2 1018.2 0.0
06/03:30am 14.7 13.0 9.7 72 2.7 SE 9 19 5 10 1019.2 1018.2 0.0
06/03:00am 14.0 12.8 9.4 74 2.4 SSE 6 13 3 7 1019.3 1018.3 0.0
06/02:30am 14.5 13.1 9.7 73 2.6 SE 7 11 4 6 1019.6 1018.6 0.0
06/02:00am 14.5 14.0 9.5 72 2.7 SSE 2 11 1 6 1019.7 1018.7 0.0
06/01:30am 14.9 13.8 9.9 72 2.7 SSE 6 13 3 7 1019.9 1018.9 0.0
06/01:00am 15.1 13.8 9.9 71 2.8 SSE 7 15 4 8 1020.1 1019.2 0.0
06/12:30am 13.9 13.9 9.7 76 2.2 CALM 0 0 0 0 1020.5 1019.6 0.0
06/12:00am 14.1 14.0 9.5 74 2.4 CALM 0 0 0 0 1020.8 1019.8 0.0
 
Date/Time
EST
Temp
°C
App
Temp
°C
Dew
Point
Rel
Hum
%
Delta-T
°C
Wind Press
QNH
hPa
Press
MSL
hPa
Rain
since 9 am
mm
Dir
 
Spd
km/h
Gust
km/h
Spd
kts
Gust
kts
05/11:30pm 14.3 12.9 9.7 74 2.5 WSW 7 13 4 7 1020.8 1019.8 0.0
05/11:00pm 15.4 14.0 9.7 69 3.1 S 7 15 4 8 1020.8 1019.8 0.0
05/10:30pm 15.4 13.7 10.0 70 2.9 SSE 9 9 5 5 1020.6 1019.7 0.0
05/10:00pm 15.7 14.0 9.8 68 3.2 S 9 11 5 6 1020.6 1019.7 0.0
05/09:30pm 16.2 14.5 9.8 66 3.5 S 9 11 5 6 1020.9 1019.9 0.0
05/09:00pm 15.8 14.4 9.5 66 3.4 SW 7 13 4 7 1021.0 1020.0 0.0
05/08:30pm 16.3 15.0 9.9 66 3.5 SSW 7 13 4 7 1021.0 1020.0 0.0
05/08:00pm 16.6 14.9 10.0 65 3.6 S 9 13 5 7 1020.5 1019.6 0.0
05/07:30pm 17.0 15.3 9.9 63 3.9 SSW 9 9 5 5 1020.4 1019.5 0.0
05/07:00pm 16.7 15.4 9.9 64 3.7 SW 7 13 4 7 1020.3 1019.4 0.0
05/06:30pm 17.1 15.8 9.8 62 4.0 SSW 7 17 4 9 1020.0 1019.1 0.0
05/06:00pm 17.6 15.9 10.0 61 4.1 SSW 9 13 5 7 1019.9 1018.9 0.0
05/05:30pm 18.1 17.0 10.0 59 4.4 SSW 6 11 3 6 1019.6 1018.6 0.0
05/05:00pm 19.4 18.3 10.1 55 5.1 S 6 11 3 6 1019.3 1018.3 0.0
05/04:30pm 20.6 20.6 9.8 50 6.0 CALM 0 0 0 0 1019.2 1018.2 0.0
05/04:00pm 21.6 20.8 9.8 47 6.6 N 4 13 2 7 1019.2 1018.2 0.0
05/03:30pm 21.8 21.3 10.6 49 6.3 NW 4 11 2 6 1019.3 1018.3 0.0
05/03:00pm 21.3 19.9 9.5 47 6.5 NW 7 13 4 7 1019.3 1018.3 0.0
05/02:30pm 22.0 20.9 10.5 48 6.5 NE 7 15 4 8 1019.3 1018.3 0.0
05/02:00pm 20.9 19.0 8.9 46 6.5 NNE 9 15 5 8 1019.5 1018.5 0.0
05/01:30pm 21.4 19.3 9.9 48 6.4 WNW 11 17 6 9 1019.7 1018.7 0.0
05/01:00pm 20.8 19.1 9.7 49 6.1 NNW 9 19 5 10 1020.0 1019.1 0.0
05/12:30pm 19.3 18.1 9.5 53 5.4 SW 6 15 3 8 1020.4 1019.5 0.0
05/12:00pm 19.5 17.8 10.0 54 5.2 WSW 9 13 5 7 1021.1 1020.1 0.0
05/11:30am 19.5 17.8 9.7 53 5.4 S 9 13 5 7 1021.5 1020.6 0.0
05/11:00am 19.3 18.5 9.5 53 5.3 NE 4 13 2 7 1021.9 1021.0 0.0
05/10:30am 18.1 16.6 9.2 56 4.8 SSE 7 11 4 6 1022.2 1021.3 0.0
05/10:00am 17.7 16.4 9.1 57 4.6 ESE 6 11 3 6 1022.5 1021.5 0.0
05/09:30am 17.4 16.0 9.6 60 4.2 NE 7 15 4 8 1022.6 1021.6 0.0
05/09:00am 16.0 14.3 9.7 66 3.4 ENE 9 13 5 7 1022.5 1021.5 0.0
05/08:30am 15.0 13.0 8.5 65 3.4 ESE 9 15 5 8 1022.2 1021.3 0.0
05/08:00am 14.3 12.3 8.5 68 3.0 ESE 9 11 5 6 1021.9 1021.0 0.0
05/07:30am 12.7 11.6 8.4 75 2.2 ESE 4 11 2 6 1021.7 1020.8 0.0
05/07:00am 12.9 11.0 7.4 69 2.8 S 7 17 4 9 1021.2 1020.2 0.0
05/06:30am 12.0 9.6 7.1 72 2.4 SSW 9 13 5 7 1020.8 1019.8 0.0
05/06:00am 12.1 9.8 7.4 73 2.4 SW 9 15 5 8 1020.6 1019.7 0.0
05/05:30am 12.1 9.8 7.4 73 2.4 SSW 9 13 5 7 1020.4 1019.5 0.0
05/05:00am 12.0 9.7 7.5 74 2.3 SSW 9 11 5 6 1020.2 1019.3 0.0
05/04:30am 12.0 9.7 7.5 74 2.3 SSW 9 19 5 10 1020.2 1019.3 0.0
05/04:00am 12.1 10.3 7.8 75 2.2 SSW 7 15 4 8 1020.2 1019.3 0.0
05/03:30am 12.2 10.0 7.7 74 2.3 SSW 9 11 5 6 1020.1 1019.2 0.0
05/03:00am 12.3 10.1 8.0 75 2.2 SSW 9 11 5 6 1020.1 1019.2 0.0
05/02:30am 12.4 9.8 7.9 74 2.3 SW 11 13 6 7 1020.3 1019.4 0.0
05/02:00am 12.6 10.1 8.1 74 2.3 SW 11 13 6 7 1020.3 1019.4 0.0
05/01:30am 12.6 10.6 8.5 76 2.1 SSW 9 11 5 6 1020.4 1019.5 0.0
05/01:00am 12.7 10.3 8.8 77 2.0 SSW 11 11 6 6 1020.5 1019.6 0.0
05/12:30am 13.0 11.2 9.3 78 1.9 SSW 9 13 5 7 1020.6 1019.7 0.0
05/12:00am 13.2 11.3 8.9 75 2.2 SW 9 11 5 6 1020.9 1019.9 0.0
 
Date/Time
EST
Temp
°C
App
Temp
°C
Dew
Point
Rel
Hum
%
Delta-T
°C
Wind Press
QNH
hPa
Press
MSL
hPa
Rain
since 9 am
mm
Dir
 
Spd
km/h
Gust
km/h
Spd
kts
Gust
kts
04/11:30pm 13.8 11.6 9.3 74 2.4 WSW 11 15 6 8 1020.9 1019.9 0.0
04/11:00pm 13.8 11.1 9.0 73 2.5 WSW 13 17 7 9 1021.0 1020.0 0.0
04/10:30pm 14.2 11.6 9.2 72 2.6 WSW 13 15 7 8 1020.8 1019.8 0.0
04/10:00pm 14.2 11.6 9.2 72 2.6 WSW 13 17 7 9 1020.8 1019.8 0.0
04/09:30pm 14.0 12.1 9.2 73 2.5 SW 9 13 5 7 1020.8 1019.8 0.0
04/09:00pm 14.8 11.9 9.6 71 2.8 WSW 15 17 8 9 1020.6 1019.7 0.0
04/08:30pm 14.7 12.1 9.5 71 2.8 WSW 13 17 7 9 1020.4 1019.5 0.0
04/08:00pm 15.0 12.5 9.6 70 2.9 WSW 13 17 7 9 1020.2 1019.3 0.0
04/07:30pm 15.2 12.2 9.3 68 3.1 WSW 15 17 8 9 1020.0 1019.1 0.0
04/07:00pm 14.7 12.4 9.1 69 3.0 WSW 11 15 6 8 1019.8 1018.8 0.0
04/06:30pm 15.8 13.2 9.5 66 3.4 WSW 13 15 7 8 1019.3 1018.3 0.0
04/06:00pm 16.1 14.1 8.6 61 4.0 WSW 9 15 5 8 1018.6 1017.6 0.0
04/05:30pm 16.7 14.1 7.6 55 4.7 WSW 11 15 6 8 1018.2 1017.2 0.0
04/05:00pm 18.2 14.6 6.7 47 5.9 SW 15 19 8 10 1017.9 1016.9 0.0
04/04:30pm 19.2 15.4 6.0 42 6.8 SW 15 20 8 11 1017.7 1016.7 0.0
04/04:00pm 20.0 15.6 4.5 36 7.7 SW 17 20 9 11 1017.6 1016.6 0.0
04/03:30pm 20.4 16.2 4.0 34 8.1 SW 15 22 8 12 1017.6 1016.6 0.0
04/03:00pm 21.0 17.1 5.4 36 8.0 SSW 15 24 8 13 1017.5 1016.5 0.0
04/02:30pm 21.1 16.6 4.2 33 8.5 SW 17 22 9 12 1017.2 1016.2 0.0
04/02:00pm 21.2 16.5 3.4 31 8.8 SW 17 22 9 12 1017.3 1016.4 0.0
04/01:30pm 21.0 17.0 2.8 30 8.9 WSW 13 24 7 13 1017.5 1016.5 0.0
04/01:00pm 21.0 16.6 2.8 30 8.8 WSW 15 28 8 15 1017.7 1016.7 0.0
04/12:30pm 21.2 17.5 4.3 33 8.5 SSW 13 19 7 10 1018.0 1017.0 0.0
04/12:00pm 20.7 17.4 4.3 34 8.2 WSW 11 17 6 9 1018.3 1017.3 0.0
04/11:30am 20.3 16.3 5.1 37 7.7 SSW 15 24 8 13 1018.6 1017.6 0.0
04/11:00am 19.0 16.3 5.8 42 6.7 S 9 15 5 8 1018.7 1017.8 0.0
04/10:30am 19.2 16.8 5.3 40 7.0 SW 7 13 4 7 1018.7 1017.8 0.0
04/10:00am 18.7 16.9 5.5 42 6.7 SW 4 13 2 7 1018.8 1017.9 0.0
04/09:30am 17.9 15.6 5.8 45 6.1 WSW 7 15 4 8 1018.9 1018.0 0.0
04/09:00am 17.0 13.4 5.0 45 5.9 WSW 13 15 7 8 1018.9 1018.0 0.0
04/08:30am 16.1 12.6 5.4 49 5.3 W 13 17 7 9 1018.6 1017.6 0.0
04/08:00am 15.3 12.9 6.8 57 4.3 W 9 15 5 8 1018.3 1017.3 0.0
04/07:30am 13.1 10.3 7.1 67 3.0 NNW 11 11 6 6 1017.8 1016.8 0.0
04/07:00am 12.0 9.2 7.1 72 2.4 N 11 13 6 7 1017.5 1016.5 0.0
04/06:30am 11.9 9.1 7.0 72 2.4 NNW 11 13 6 7 1017.1 1016.1 0.0
04/06:00am 12.4 9.0 7.5 72 2.5 NW 15 15 8 8 1016.7 1015.7 0.0
04/05:30am 12.3 8.5 7.6 73 2.4 NW 17 20 9 11 1016.5 1015.5 0.0
04/05:00am 11.9 8.5 7.6 75 2.2 NW 15 17 8 9 1016.2 1015.2 0.0
04/04:30am 11.6 7.7 7.1 74 2.2 NW 17 19 9 10 1016.1 1015.1 0.0
04/04:00am 11.3 8.5 7.0 75 2.1 NW 11 15 6 8 1015.7 1014.7 0.0
04/03:30am 12.0 9.7 7.3 73 2.4 NNW 9 15 5 8 1015.5 1014.5 0.0
04/03:00am 12.7 9.8 6.7 67 3.0 W 11 13 6 7 1015.5 1014.5 0.0
04/02:30am 13.2 10.5 7.2 67 3.0 WSW 11 15 6 8 1015.6 1014.6 0.0
04/02:00am 11.9 9.2 7.4 74 2.3 W 11 13 6 7 1015.9 1014.8 0.0
04/01:30am 12.0 8.7 7.9 76 2.1 WNW 15 17 8 9 1015.9 1014.8 0.0
04/01:00am 12.8 10.3 8.1 73 2.4 W 11 13 6 7 1015.7 1014.7 0.0
04/12:30am 13.4 11.5 8.9 74 2.3 NW 9 15 5 8 1015.9 1014.8 0.0
04/12:00am 14.0 11.1 9.6 75 2.3 NW 15 20 8 11 1016.0 1015.0 0.0
 
Date/Time
EST
Temp
°C
App
Temp
°C
Dew
Point
Rel
Hum
%
Delta-T
°C
Wind Press
QNH
hPa
Press
MSL
hPa
Rain
since 9 am
mm
Dir
 
Spd
km/h
Gust
km/h
Spd
kts
Gust
kts
03/11:30pm 14.4 12.0 10.2 76 2.3 NW 13 19 7 10 1016.0 1015.0 0.0

Other Formats:

Comma delimited format used in spreadsheet applications
http://www.bom.gov.au/fwo/IDN60801/IDN60801.95728.axf

JavaScript Object Notation format (JSON) in row-major order
http://www.bom.gov.au/fwo/IDN60801/IDN60801.95728.json